Time;durP1;ratioP1;P1;durP2;ratioP2;P2;SDS_P1;SDS_P2;PMS_P1;PMS_P2;Temp;Humidity;BMP_temperature;BMP_pressure;BME280_temperature;BME280_humidity;BME280_pressure;Samples;Min_cycle;Max_cycle;Signal;HPM_P1;HPM_P2
2022/01/30 00:00:31;;;;;;;33.20;4.90;;;;;;;6.00;77.97;102695.72;5084401;28;20039;-74
2022/01/30 00:02:56;;;;;;;31.25;4.75;;;;;;;5.97;77.31;102695.50;5090790;28;20058;-73
2022/01/30 00:05:22;;;;;;;31.42;4.82;;;;;;;5.95;77.35;102697.03;5082631;28;20016;-74
2022/01/30 00:07:48;;;;;;;31.23;5.28;;;;;;;5.91;77.46;102703.69;5092051;28;20020;-74
2022/01/30 00:10:14;;;;;;;28.75;5.25;;;;;;;5.89;77.24;102705.28;5083523;28;20025;-74
2022/01/30 00:12:51;;;;;;;33.00;5.35;;;;;;;5.86;77.45;102722.22;5085407;28;20056;-74
2022/01/30 00:15:18;;;;;;;25.20;4.57;;;;;;;5.83;77.81;102709.09;5077482;28;20020;-74
2022/01/30 00:17:51;;;;;;;28.90;5.13;;;;;;;5.80;77.77;102707.16;5092513;28;20035;-74
2022/01/30 00:20:23;;;;;;;33.45;5.35;;;;;;;5.75;77.68;102717.19;5077872;28;20087;-74
2022/01/30 00:22:57;;;;;;;31.45;5.30;;;;;;;5.74;77.49;102710.19;5091042;28;20170;-74
2022/01/30 00:25:41;;;;;;;31.42;4.70;;;;;;;5.72;77.18;102718.63;5080055;28;20016;-74
2022/01/30 00:28:08;;;;;;;27.98;4.38;;;;;;;5.69;77.35;102716.75;5080357;28;20069;-74
2022/01/30 00:30:35;;;;;;;34.40;5.53;;;;;;;5.66;77.33;102728.53;5086777;28;20300;-74
2022/01/30 00:33:02;;;;;;;36.97;5.53;;;;;;;5.65;77.08;102734.47;5088356;28;20023;-74
2022/01/30 00:35:28;;;;;;;25.08;4.80;;;;;;;5.63;77.54;102744.72;5082011;28;20016;-73
2022/01/30 00:37:54;;;;;;;32.97;4.10;;;;;;;5.62;77.74;102732.59;5090086;28;20050;-74
2022/01/30 00:40:20;;;;;;;24.27;4.97;;;;;;;5.61;77.41;102732.47;5086852;28;20028;-74
2022/01/30 00:42:45;;;;;;;23.98;4.72;;;;;;;5.59;77.53;102729.78;5091275;28;20226;-74
2022/01/30 00:45:10;;;;;;;35.22;5.03;;;;;;;5.54;78.06;102729.41;5085977;28;20024;-74
2022/01/30 00:47:35;;;;;;;28.55;4.65;;;;;;;5.52;78.16;102724.94;5091710;28;20079;-74
2022/01/30 00:50:01;;;;;;;29.83;5.28;;;;;;;5.51;77.94;102728.28;5083059;28;20088;-74
2022/01/30 00:52:26;;;;;;;31.40;5.07;;;;;;;5.52;78.23;102727.53;5091895;28;20258;-74
2022/01/30 00:54:51;;;;;;;29.45;4.95;;;;;;;5.49;77.84;102732.44;5103936;28;20114;-74
2022/01/30 00:57:17;;;;;;;31.17;4.10;;;;;;;5.48;77.75;102725.50;5092442;28;20266;-74
2022/01/30 00:59:42;;;;;;;32.60;5.72;;;;;;;5.46;78.00;102738.31;5085842;28;20027;-74
2022/01/30 01:02:07;;;;;;;31.02;3.83;;;;;;;5.44;77.69;102738.97;5092887;28;20054;-74
2022/01/30 01:04:32;;;;;;;28.95;4.18;;;;;;;5.42;78.00;102750.84;5087372;28;20099;-74
2022/01/30 01:06:58;;;;;;;25.15;4.28;;;;;;;5.38;77.29;102747.16;5091245;28;20020;-74
2022/01/30 01:09:31;;;;;;;31.90;5.38;;;;;;;5.39;77.83;102748.97;5103576;28;20040;-74
2022/01/30 01:25:32;;;;;;;28.50;4.60;;;;;;;5.35;77.91;102750.41;5075304;28;20035;-73
2022/01/30 01:27:57;;;;;;;25.75;5.28;;;;;;;5.32;77.88;102749.28;5073899;28;20273;-74
2022/01/30 01:30:23;;;;;;;36.78;5.88;;;;;;;5.30;78.16;102756.94;5107176;28;20028;-74
2022/01/30 01:32:48;;;;;;;36.67;4.95;;;;;;;5.26;78.34;102756.53;5090482;28;20280;-74
2022/01/30 01:35:13;;;;;;;25.95;4.45;;;;;;;5.24;78.63;102771.94;5085077;28;20260;-74
2022/01/30 01:37:39;;;;;;;28.23;5.00;;;;;;;5.20;78.55;102764.75;5092115;28;20058;-73
2022/01/30 01:40:05;;;;;;;28.48;5.43;;;;;;;5.18;78.62;102772.38;5090805;28;20012;-74
2022/01/30 01:42:33;;;;;;;29.33;5.07;;;;;;;5.18;78.93;102763.72;5086898;28;20031;-74
2022/01/30 01:44:59;;;;;;;32.00;4.90;;;;;;;5.16;79.04;102767.88;5084258;28;20040;-74
2022/01/30 01:47:30;;;;;;;29.83;5.38;;;;;;;5.16;78.95;102771.38;5093399;28;20274;-73
2022/01/30 01:49:55;;;;;;;30.63;5.07;;;;;;;5.15;78.91;102766.97;5093371;28;20030;-74
2022/01/30 01:52:23;;;;;;;33.42;4.53;;;;;;;5.12;79.30;102766.75;5085993;28;20020;-74
2022/01/30 01:54:56;;;;;;;29.08;4.97;;;;;;;5.10;79.26;102772.56;5094727;28;20079;-73
2022/01/30 01:57:23;;;;;;;29.92;4.93;;;;;;;5.05;79.44;102775.72;5090772;28;20028;-74
2022/01/30 01:59:48;;;;;;;33.53;4.90;;;;;;;5.04;79.72;102778.19;5106866;28;20042;-73
2022/01/30 02:02:14;;;;;;;34.42;4.45;;;;;;;4.99;79.61;102769.16;5106752;28;20174;-74
2022/01/30 02:04:41;;;;;;;29.20;4.13;;;;;;;4.97;79.83;102770.75;5099726;28;20259;-74
2022/01/30 02:09:44;;;;;;;27.50;4.70;;;;;;;4.93;80.22;102766.13;5106573;28;20168;-74
2022/01/30 02:12:17;;;;;;;26.05;4.65;;;;;;;4.91;80.00;102758.25;5106410;28;20023;-74
2022/01/30 02:15:03;;;;;;;31.90;4.95;;;;;;;4.90;80.24;102753.84;5100909;28;20166;-74
2022/01/30 02:25:43;;;;;;;29.20;4.80;;;;;;;4.87;80.23;102746.75;5088524;28;20063;-74
2022/01/30 02:28:15;;;;;;;25.50;4.35;;;;;;;4.86;80.63;102744.94;5090168;28;20167;-73
2022/01/30 02:30:49;;;;;;;33.17;5.47;;;;;;;4.85;80.01;102758.69;5105323;28;20079;-73
2022/01/30 02:33:14;;;;;;;30.50;5.03;;;;;;;4.84;79.97;102753.38;5099121;28;20312;-74
2022/01/30 02:35:39;;;;;;;33.40;4.63;;;;;;;4.82;80.07;102753.28;5078286;28;20078;-74
2022/01/30 02:38:05;;;;;;;29.42;5.10;;;;;;;4.80;80.25;102754.81;5106122;28;20023;-74
2022/01/30 02:40:34;;;;;;;30.00;5.18;;;;;;;4.79;80.13;102758.16;5083989;28;20029;-74
2022/01/30 02:43:00;;;;;;;30.13;5.60;;;;;;;4.79;80.76;102759.88;5078794;28;20016;-73
2022/01/30 02:45:29;;;;;;;27.17;4.22;;;;;;;4.75;80.36;102752.66;5102162;28;20020;-74
2022/01/30 02:47:59;;;;;;;33.25;5.40;;;;;;;4.74;80.69;102745.72;5104837;28;20015;-74
2022/01/30 02:53:01;;;;;;;35.85;5.50;;;;;;;4.68;81.26;102738.38;5105946;28;20015;-74
2022/01/30 02:55:26;;;;;;;32.38;4.57;;;;;;;4.67;81.61;102740.03;5103834;28;20020;-73
2022/01/30 02:57:52;;;;;;;32.22;4.55;;;;;;;4.68;81.57;102751.28;5106050;28;20031;-74
2022/01/30 03:00:17;;;;;;;33.85;5.38;;;;;;;4.66;81.54;102748.59;5105658;28;20075;-73
2022/01/30 03:02:43;;;;;;;39.00;4.85;;;;;;;4.65;81.77;102759.69;5104489;28;20096;-74
2022/01/30 03:05:08;;;;;;;27.60;4.10;;;;;;;4.66;81.87;102768.31;5092601;28;20171;-74
2022/01/30 03:07:33;;;;;;;38.22;5.07;;;;;;;4.64;81.43;102773.38;5099001;28;20083;-74
2022/01/30 03:09:59;;;;;;;32.25;4.43;;;;;;;4.63;81.43;102771.56;5096901;28;20020;-74
2022/01/30 03:12:24;;;;;;;32.15;4.15;;;;;;;4.62;81.63;102781.78;5091413;28;20019;-74
2022/01/30 03:14:50;;;;;;;29.50;4.65;;;;;;;4.60;81.62;102778.19;5094782;28;20258;-74
2022/01/30 03:17:15;;;;;;;27.55;4.82;;;;;;;4.55;81.84;102782.97;5102379;28;20095;-74
2022/01/30 03:19:41;;;;;;;32.13;5.22;;;;;;;4.50;81.87;102792.03;5105280;28;20241;-74
2022/01/30 03:22:06;;;;;;;25.27;4.28;;;;;;;4.46;81.86;102787.41;5105113;28;20022;-74
2022/01/30 03:24:36;;;;;;;28.50;4.82;;;;;;;4.42;82.51;102793.09;5082293;28;20024;-74
2022/01/30 03:27:01;;;;;;;24.58;4.28;;;;;;;4.40;82.57;102803.28;5081886;28;20020;-74
2022/01/30 03:29:27;;;;;;;28.42;4.75;;;;;;;4.40;82.84;102797.25;5095433;28;20022;-74
2022/01/30 03:31:52;;;;;;;30.40;4.88;;;;;;;4.40;83.10;102797.25;5103364;28;20167;-74
2022/01/30 03:34:17;;;;;;;28.75;4.78;;;;;;;4.41;83.11;102804.22;5095981;28;20020;-74
2022/01/30 03:36:42;;;;;;;27.67;5.45;;;;;;;4.42;83.43;102816.31;5098295;28;20202;-74
2022/01/30 03:39:08;;;;;;;22.95;4.45;;;;;;;4.44;83.73;102825.09;5091514;28;20044;-74
2022/01/30 03:41:33;;;;;;;24.38;5.15;;;;;;;4.44;83.87;102827.69;5104823;28;20020;-74
2022/01/30 03:43:58;;;;;;;34.50;4.75;;;;;;;4.45;84.04;102832.97;5104358;28;20024;-74
2022/01/30 03:46:24;;;;;;;28.98;4.40;;;;;;;4.45;83.84;102834.66;5093336;28;20031;-74
2022/01/30 03:48:49;;;;;;;19.73;3.88;;;;;;;4.45;84.19;102840.72;5104144;28;20027;-74
2022/01/30 03:51:15;;;;;;;21.92;4.40;;;;;;;4.45;83.84;102844.97;5104608;28;20190;-74
2022/01/30 03:53:41;;;;;;;38.10;5.55;;;;;;;4.44;83.50;102844.06;5104435;28;20058;-74
2022/01/30 03:56:07;;;;;;;28.00;4.40;;;;;;;4.45;83.54;102834.66;5098509;28;20031;-74
2022/01/30 03:58:33;;;;;;;29.48;4.38;;;;;;;4.44;83.29;102843.16;5103201;28;20016;-74
2022/01/30 04:00:59;;;;;;;28.90;5.10;;;;;;;4.45;83.42;102842.41;5104321;28;20166;-74
2022/01/30 04:03:25;;;;;;;34.00;5.32;;;;;;;4.44;83.50;102844.06;5104200;28;20051;-74
2022/01/30 04:05:50;;;;;;;29.20;5.07;;;;;;;4.43;83.34;102846.53;5099595;28;20024;-73
2022/01/30 04:08:16;;;;;;;28.85;4.70;;;;;;;4.42;83.34;102852.44;5103095;28;20039;-74
2022/01/30 04:10:42;;;;;;;26.55;4.25;;;;;;;4.41;83.54;102858.41;5104326;28;20023;-74
2022/01/30 04:13:07;;;;;;;22.65;4.20;;;;;;;4.39;83.75;102859.94;5104076;28;20028;-74
2022/01/30 04:15:33;;;;;;;25.63;5.15;;;;;;;4.38;83.88;102860.75;5100639;28;20019;-74
2022/01/30 04:18:00;;;;;;;26.83;4.80;;;;;;;4.38;84.06;102861.66;5104007;28;20032;-74
2022/01/30 04:20:25;;;;;;;27.63;5.18;;;;;;;4.39;84.42;102862.53;5100968;28;20019;-74
2022/01/30 04:22:51;;;;;;;24.95;5.30;;;;;;;4.39;84.40;102859.94;5075654;28;20028;-74
2022/01/30 04:25:16;;;;;;;27.05;4.88;;;;;;;4.41;84.43;102864.47;5094762;28;20044;-74
2022/01/30 04:27:41;;;;;;;32.40;5.28;;;;;;;4.42;84.53;102870.53;5096684;28;20020;-74
2022/01/30 04:30:09;;;;;;;28.60;4.35;;;;;;;4.44;84.48;102871.56;5097197;28;20083;-74
2022/01/30 04:32:40;;;;;;;27.77;4.22;;;;;;;4.45;84.57;102868.22;5103987;28;20023;-74
2022/01/30 04:35:12;;;;;;;32.20;5.00;;;;;;;4.47;84.77;102867.53;5078631;28;20084;-74
2022/01/30 04:37:57;;;;;;;28.58;4.97;;;;;;;4.48;84.59;102874.50;5082143;28;20178;-74
2022/01/30 04:57:21;;;;;;;29.90;5.03;;;;;;;4.58;84.13;102883.91;5087842;28;20082;-74
2022/01/30 05:02:49;;;;;;;35.78;4.65;;;;;;;4.58;83.41;102883.91;5107885;28;20046;-74
2022/01/30 05:07:44;;;;;;;21.88;3.45;;;;;;;4.51;83.10;102898.00;5104298;28;20028;-74
2022/01/30 05:10:10;;;;;;;22.67;3.80;;;;;;;4.47;82.97;102901.09;5107670;28;20043;-74
2022/01/30 05:12:47;;;;;;;23.05;3.40;;;;;;;4.45;82.83;102907.81;5107704;28;20035;-74
2022/01/30 05:15:14;;;;;;;27.20;4.68;;;;;;;4.42;82.72;102916.97;5101283;28;20040;-74
2022/01/30 05:17:40;;;;;;;22.70;3.70;;;;;;;4.40;82.92;102918.53;5102073;28;20060;-74
2022/01/30 05:20:06;;;;;;;17.38;3.90;;;;;;;4.39;82.92;102911.56;5086298;28;20020;-74
2022/01/30 05:22:31;;;;;;;28.52;4.00;;;;;;;4.34;82.65;102914.72;5107552;28;20083;-74
2022/01/30 05:24:57;;;;;;;33.80;4.40;;;;;;;4.29;82.55;102916.00;5101634;28;20024;-74
2022/01/30 05:27:22;;;;;;;33.35;4.20;;;;;;;4.26;82.86;102905.41;5097442;28;20061;-74
2022/01/30 05:29:48;;;;;;;21.27;4.25;;;;;;;4.23;83.21;102905.16;5107576;28;20274;-74
2022/01/30 05:32:14;;;;;;;25.13;3.97;;;;;;;4.23;83.15;102911.97;5106626;28;20020;-74
2022/01/30 05:34:39;;;;;;;28.98;5.55;;;;;;;4.20;83.39;102910.06;5094141;28;20016;-74
2022/01/30 05:37:08;;;;;;;26.83;4.03;;;;;;;4.17;83.16;102910.72;5093719;28;20021;-74
2022/01/30 05:39:34;;;;;;;34.67;5.70;;;;;;;4.15;82.90;102909.66;5093830;28;20069;-74
2022/01/30 05:41:59;;;;;;;25.98;4.35;;;;;;;4.12;82.81;102911.09;5107167;28;20079;-74
2022/01/30 05:44:39;;;;;;;22.75;3.63;;;;;;;4.10;82.91;102915.22;5107061;28;20062;-74
2022/01/30 05:47:06;;;;;;;;;;;;;;;4.14;83.35;102917.28;5101181;28;20020;-73
2022/01/30 05:49:32;;;;;;;21.17;3.88;;;;;;;4.08;82.70;102914.19;5107172;28;19900;-74
2022/01/30 05:51:58;;;;;;;23.25;3.20;;;;;;;4.07;82.66;102920.13;5107527;28;20154;-74
2022/01/30 05:54:23;;;;;;;23.15;3.38;;;;;;;4.04;82.72;102917.28;5106845;28;20019;-74
2022/01/30 05:56:50;;;;;;;24.95;4.30;;;;;;;4.02;82.66;102918.84;5101847;28;20019;-74
2022/01/30 05:59:15;;;;;;;23.23;4.35;;;;;;;3.99;82.68;102928.13;5106745;28;20055;-74
2022/01/30 06:01:41;;;;;;;28.50;4.45;;;;;;;3.96;83.14;102926.97;5107265;28;20042;-74
2022/01/30 06:04:06;;;;;;;27.27;4.57;;;;;;;3.97;82.60;102932.25;5106669;28;20024;-74
2022/01/30 06:06:31;;;;;;;28.90;4.03;;;;;;;3.94;82.94;102942.31;5103227;28;20048;-74
2022/01/30 06:11:25;;;;;;;30.98;4.28;;;;;;;3.91;82.58;102931.75;5106653;28;20024;-74
2022/01/30 06:13:50;;;;;;;26.25;3.65;;;;;;;3.88;82.33;102934.09;5106461;28;20077;-74
2022/01/30 06:16:15;;;;;;;22.58;3.55;;;;;;;3.88;82.29;102941.81;5104317;28;20028;-74
2022/01/30 06:18:41;;;;;;;19.67;3.20;;;;;;;3.86;82.21;102937.28;5106435;28;20085;-74
2022/01/30 06:21:06;;;;;;;23.23;3.47;;;;;;;3.83;82.13;102933.66;5106194;28;20194;-74
2022/01/30 06:23:31;;;;;;;21.27;3.67;;;;;;;3.81;82.18;102939.50;5106236;28;20028;-74
2022/01/30 06:25:57;;;;;;;18.33;3.08;;;;;;;3.78;82.34;102928.88;5088215;28;20021;-74
2022/01/30 06:28:22;;;;;;;18.42;2.88;;;;;;;3.74;82.76;102925.16;5096415;28;20086;-74
2022/01/30 06:30:48;;;;;;;22.08;3.60;;;;;;;3.73;82.70;102925.94;5106331;28;20058;-74
2022/01/30 06:33:13;;;;;;;21.35;3.67;;;;;;;3.78;82.68;102932.41;5097801;28;20028;-74
2022/01/30 06:35:39;;;;;;;28.23;3.25;;;;;;;3.81;82.31;102934.34;5099866;28;20012;-74
2022/01/30 06:38:04;;;;;;;27.63;3.38;;;;;;;3.86;82.42;102938.19;5099828;28;20016;-74
2022/01/30 06:40:30;;;;;;;19.40;2.78;;;;;;;3.90;81.82;102944.53;5106226;28;20012;-74
2022/01/30 06:42:55;;;;;;;21.20;3.03;;;;;;;3.95;81.91;102944.16;5106091;28;20019;-74
2022/01/30 06:45:21;;;;;;;23.38;3.50;;;;;;;3.98;81.88;102948.63;5102331;28;20024;-74
2022/01/30 06:47:47;;;;;;;19.88;4.25;;;;;;;4.00;82.28;102942.84;5085587;28;20017;-74
2022/01/30 06:50:13;;;;;;;20.30;3.40;;;;;;;4.03;82.08;102949.00;5103737;28;20156;-74
2022/01/30 06:52:39;;;;;;;20.50;3.25;;;;;;;4.06;82.16;102951.88;5105970;28;20091;-74
2022/01/30 06:55:06;;;;;;;25.10;3.30;;;;;;;4.08;82.16;102956.38;5101459;28;20163;-74
2022/01/30 06:57:31;;;;;;;21.48;3.08;;;;;;;4.09;82.10;102952.13;5084817;28;20131;-74
2022/01/30 06:59:57;;;;;;;23.23;3.25;;;;;;;4.11;81.65;102960.88;5082168;28;20174;-74
2022/01/30 07:02:22;;;;;;;26.55;3.30;;;;;;;4.11;80.88;102966.06;5105406;28;20020;-74
2022/01/30 07:04:48;;;;;;;23.52;3.88;;;;;;;4.10;80.92;102972.91;5101615;28;20023;-74
2022/01/30 07:07:13;;;;;;;21.42;4.20;;;;;;;4.09;80.82;102970.19;5082466;28;20166;-74
2022/01/30 07:09:39;;;;;;;23.55;3.45;;;;;;;4.07;80.51;102975.22;5104140;28;20332;-74
2022/01/30 07:12:05;;;;;;;22.15;3.30;;;;;;;4.06;80.44;102975.09;5089858;28;20008;-74
2022/01/30 07:14:30;;;;;;;24.67;3.55;;;;;;;4.05;80.64;102981.03;5094445;28;20032;-74
2022/01/30 07:16:55;;;;;;;23.70;3.50;;;;;;;4.03;80.29;102980.91;5104720;28;20042;-74
2022/01/30 07:19:21;;;;;;;24.80;3.25;;;;;;;4.02;80.59;102981.66;5105275;28;20083;-74
2022/01/30 07:21:46;;;;;;;30.77;3.88;;;;;;;4.00;81.23;102983.22;5091326;28;20259;-74
2022/01/30 07:24:11;;;;;;;12.32;2.17;;;;;;;3.99;81.23;102992.59;5089635;28;20281;-74
2022/01/30 07:26:37;;;;;;;22.42;3.50;;;;;;;3.98;81.69;102987.31;5103030;28;20019;-74
2022/01/30 07:29:04;;;;;;;25.05;4.03;;;;;;;3.96;81.58;102987.19;5103809;28;20019;-74
2022/01/30 07:31:31;;;;;;;20.52;2.63;;;;;;;3.98;81.41;102984.75;5088488;28;20016;-74
2022/01/30 07:33:56;;;;;;;23.65;2.95;;;;;;;3.98;81.32;102989.91;5073362;28;20036;-74
2022/01/30 07:36:22;;;;;;;24.83;3.53;;;;;;;3.98;81.00;102995.06;5093821;28;20070;-74
2022/01/30 07:38:47;;;;;;;20.55;3.13;;;;;;;3.97;80.63;103009.66;5091418;28;20028;-74
2022/01/30 07:41:13;;;;;;;16.42;3.22;;;;;;;3.98;80.60;103008.88;5103408;28;20027;-74
2022/01/30 07:43:38;;;;;;;22.85;3.17;;;;;;;4.00;80.23;103009.00;5094335;28;20020;-74
2022/01/30 07:46:04;;;;;;;20.60;3.63;;;;;;;4.02;80.30;103009.16;5077335;28;20017;-74
2022/01/30 07:48:29;;;;;;;25.38;3.15;;;;;;;4.00;80.16;103019.34;5104742;28;20184;-74
2022/01/30 07:50:55;;;;;;;24.60;3.47;;;;;;;4.00;80.34;103020.22;5102713;28;20070;-74
2022/01/30 07:53:20;;;;;;;19.45;2.85;;;;;;;4.02;79.93;103022.03;5097170;28;20094;-74
2022/01/30 07:55:45;;;;;;;24.00;2.85;;;;;;;4.02;80.20;103024.63;5096234;28;20018;-74
2022/01/30 07:58:12;;;;;;;23.15;3.33;;;;;;;4.03;79.94;103019.59;5103376;28;20008;-74
2022/01/30 08:00:38;;;;;;;24.08;3.38;;;;;;;4.03;80.11;103018.66;5104379;28;20016;-74
2022/01/30 08:03:03;;;;;;;20.63;2.88;;;;;;;4.01;80.33;103018.53;5082572;28;20027;-74
2022/01/30 08:05:29;;;;;;;22.88;2.80;;;;;;;4.00;80.23;103019.34;5104408;28;20015;-74
2022/01/30 08:07:54;;;;;;;22.70;2.92;;;;;;;4.03;80.24;103021.25;5098653;28;20174;-74
2022/01/30 08:10:20;;;;;;;19.67;3.50;;;;;;;4.08;80.24;103013.13;5096031;28;20020;-74
2022/01/30 08:12:45;;;;;;;21.98;3.40;;;;;;;4.13;79.81;103029.03;5100329;28;20297;-74
2022/01/30 08:15:10;;;;;;;21.02;3.53;;;;;;;4.14;79.47;103018.84;5084722;28;20017;-74
2022/01/30 08:17:36;;;;;;;29.95;4.35;;;;;;;4.15;79.20;103024.88;5099497;28;20032;-74
2022/01/30 08:20:02;;;;;;;25.00;3.58;;;;;;;4.17;79.58;103031.06;5104146;28;20024;-74
2022/01/30 08:22:30;;;;;;;28.67;3.65;;;;;;;4.22;79.78;103032.38;5089932;28;20133;-74
2022/01/30 08:24:55;;;;;;;25.40;3.53;;;;;;;4.34;79.10;103038.59;5104104;28;20092;-74
2022/01/30 08:27:20;;;;;;;19.30;3.00;;;;;;;4.59;79.43;103039.72;5102777;28;20036;-74
2022/01/30 08:29:46;;;;;;;17.83;2.67;;;;;;;4.89;77.49;103036.19;5103329;28;20070;-74
2022/01/30 08:32:11;;;;;;;25.10;3.13;;;;;;;5.03;77.15;103045.06;5078406;28;20298;-74
2022/01/30 08:34:39;;;;;;;20.33;3.53;;;;;;;5.28;76.65;103040.22;5090706;28;20327;-74
2022/01/30 08:37:05;;;;;;;21.02;3.35;;;;;;;5.68;75.43;103042.50;5104446;28;20023;-74
2022/01/30 08:39:30;;;;;;;22.45;3.22;;;;;;;5.97;74.87;103039.66;5093702;28;20263;-74
2022/01/30 08:41:55;;;;;;;23.75;3.65;;;;;;;6.09;74.00;103047.44;5091564;28;20186;-75
2022/01/30 08:44:20;;;;;;;22.27;3.90;;;;;;;5.99;74.79;103038.06;5091061;28;20054;-74
2022/01/30 08:46:46;;;;;;;26.42;3.45;;;;;;;5.81;75.12;103041.75;5103989;28;20024;-74
2022/01/30 08:49:11;;;;;;;26.25;2.95;;;;;;;5.62;75.24;103036.81;5100165;28;20063;-74
2022/01/30 08:51:37;;;;;;;18.40;2.90;;;;;;;5.50;76.35;103047.09;5078885;28;20019;-74
2022/01/30 08:54:02;;;;;;;21.27;3.85;;;;;;;5.85;77.29;103044.72;5074926;28;20024;-74
2022/01/30 08:56:28;;;;;;;19.88;2.90;;;;;;;6.09;75.85;103039.69;5073670;28;20017;-74
2022/01/30 08:58:54;;;;;;;18.67;3.92;;;;;;;6.03;75.07;103044.41;5077154;28;20033;-74
2022/01/30 09:01:19;;;;;;;26.05;3.83;;;;;;;5.95;74.06;103048.91;5075032;28;20276;-74
2022/01/30 09:03:44;;;;;;;27.60;3.42;;;;;;;6.00;75.14;103042.47;5078448;28;20008;-74
2022/01/30 09:06:10;;;;;;;23.83;3.08;;;;;;;6.02;75.07;103046.06;5076205;28;20012;-74
2022/01/30 09:08:35;;;;;;;23.38;4.00;;;;;;;6.09;74.35;103050.03;5075991;28;20277;-74
2022/01/30 09:11:01;;;;;;;26.17;4.50;;;;;;;6.02;75.15;103053.81;5100606;28;20028;-74
2022/01/30 09:13:26;;;;;;;22.25;3.42;;;;;;;6.31;74.48;103056.88;5098734;28;20028;-74
2022/01/30 09:15:56;;;;;;;20.05;3.70;;;;;;;6.65;72.71;103060.34;5103350;28;20015;-73
2022/01/30 09:18:23;;;;;;;26.08;3.83;;;;;;;7.00;71.93;103063.78;5101171;28;20017;-74
2022/01/30 09:20:49;;;;;;;29.75;4.68;;;;;;;7.45;70.25;103067.91;5091907;28;20070;-74
2022/01/30 09:23:14;;;;;;;20.15;3.63;;;;;;;7.32;69.45;103081.69;5096174;28;20016;-74
2022/01/30 09:25:40;;;;;;;23.23;3.67;;;;;;;7.06;70.40;103083.25;5084861;28;20260;-74
2022/01/30 09:28:06;;;;;;;21.65;4.72;;;;;;;6.86;70.84;103074.00;5095864;28;20028;-74
2022/01/30 09:30:32;;;;;;;31.08;4.20;;;;;;;6.92;71.70;103074.47;5099259;28;20024;-80
2022/01/30 09:32:57;;;;;;;28.95;3.78;;;;;;;6.81;71.56;103082.22;5070063;28;20274;-69
2022/01/30 09:35:23;;;;;;;22.17;3.67;;;;;;;6.64;71.69;103078.38;5073963;28;20048;-70
2022/01/30 09:37:49;;;;;;;24.88;3.75;;;;;;;6.47;72.25;103082.25;5068088;28;20021;-69
2022/01/30 09:40:17;;;;;;;23.23;3.65;;;;;;;6.32;72.84;103079.41;5093436;28;20020;-70
2022/01/30 09:42:44;;;;;;;28.05;4.90;;;;;;;6.23;73.77;103089.94;5102517;28;20259;-70
2022/01/30 09:45:10;;;;;;;29.42;3.50;;;;;;;6.24;74.09;103090.06;5105114;28;20050;-70
2022/01/30 09:47:36;;;;;;;21.63;3.83;;;;;;;6.31;74.13;103088.84;5093714;28;20026;-70
2022/01/30 09:50:05;;;;;;;23.33;4.03;;;;;;;6.33;73.74;103092.47;5092414;28;20043;-70
2022/01/30 09:52:30;;;;;;;23.08;4.05;;;;;;;6.30;73.44;103094.81;5099518;28;20024;-70
2022/01/30 09:54:56;;;;;;;31.75;5.18;;;;;;;6.23;74.10;103089.94;5106870;28;20081;-69
2022/01/30 09:57:21;;;;;;;28.48;4.53;;;;;;;6.22;73.88;103095.91;5106931;28;20032;-70
2022/01/30 09:59:47;;;;;;;27.65;4.03;;;;;;;6.23;75.35;103093.44;5096324;28;20193;-70
2022/01/30 10:02:13;;;;;;;20.63;3.83;;;;;;;6.24;75.30;103097.84;5106651;28;20133;-69
2022/01/30 10:04:39;;;;;;;37.50;4.05;;;;;;;6.22;74.00;103101.09;5106610;28;20238;-69
2022/01/30 10:07:15;;;;;;;30.33;4.38;;;;;;;6.14;73.03;103110.84;5102068;28;20083;-70
2022/01/30 10:09:50;;;;;;;26.88;4.63;;;;;;;6.11;74.55;103109.69;5100681;28;20024;-69
2022/01/30 10:12:23;;;;;;;23.77;3.97;;;;;;;6.16;74.08;103118.72;5105325;28;20062;-70
2022/01/30 10:15:01;;;;;;;26.30;4.55;;;;;;;6.21;74.24;103127.75;5092704;28;20016;-69
2022/01/30 10:17:38;;;;;;;26.08;3.83;;;;;;;6.26;73.53;103126.44;5104344;28;20039;-69
2022/01/30 10:20:09;;;;;;;31.08;4.60;;;;;;;6.30;73.30;103127.56;5101881;28;20176;-69
2022/01/30 10:22:58;;;;;;;27.42;4.25;;;;;;;6.31;74.05;103134.53;5097445;28;20066;-69
2022/01/30 10:25:34;;;;;;;30.83;4.72;;;;;;;6.31;74.26;103127.66;5085446;28;20086;-70
2022/01/30 10:28:22;;;;;;;27.75;4.28;;;;;;;6.39;75.62;103124.00;5104918;28;20121;-70
2022/01/30 10:30:56;;;;;;;32.83;4.20;;;;;;;6.44;74.66;103127.88;5105068;28;20120;-70
2022/01/30 10:33:46;;;;;;;28.65;4.38;;;;;;;6.47;75.21;103126.28;5087995;28;20062;-70
2022/01/30 10:36:23;;;;;;;30.00;4.47;;;;;;;6.50;74.80;103126.50;5099199;28;20012;-69
2022/01/30 10:39:04;;;;;;;23.63;4.72;;;;;;;6.54;73.94;103124.28;5104930;28;20012;-70
2022/01/30 10:41:41;;;;;;;26.08;4.25;;;;;;;6.57;74.80;103121.91;5099174;27;20017;-70
2022/01/30 10:44:09;;;;;;;33.83;4.05;;;;;;;6.61;73.39;103126.53;5111189;28;20028;-69
2022/01/30 10:46:40;;;;;;;;;;;;;;;6.69;75.27;103127.16;5101487;28;20043;-67
2022/01/30 10:49:16;;;;;;;28.25;4.43;;;;;;;6.74;74.67;103123.22;5099869;28;19904;-67
2022/01/30 10:51:57;;;;;;;34.75;4.75;;;;;;;6.77;73.91;103125.13;5105113;28;20193;-67
2022/01/30 10:54:26;;;;;;;32.22;4.32;;;;;;;6.75;73.26;103119.84;5091334;28;20016;-67
2022/01/30 10:57:04;;;;;;;33.38;4.40;;;;;;;6.72;72.62;103117.03;5102372;28;20023;-68
2022/01/30 10:59:30;;;;;;;35.50;5.07;;;;;;;6.72;72.27;103119.63;5105689;28;20157;-67
2022/01/30 11:02:16;;;;;;;31.00;4.97;;;;;;;6.75;74.09;103125.03;5105753;28;20020;-67
2022/01/30 11:04:42;;;;;;;32.88;4.47;;;;;;;6.82;72.56;103125.47;5105597;28;20246;-67
2022/01/30 11:07:08;;;;;;;31.90;4.70;;;;;;;6.86;71.68;103107.69;5103110;28;20037;-67
2022/01/30 11:09:45;;;;;;;34.58;4.95;;;;;;;6.90;71.70;103104.53;5094410;28;20024;-67
2022/01/30 11:12:14;;;;;;;32.13;4.35;;;;;;;6.99;72.05;103104.31;5105712;28;20061;-67
2022/01/30 11:17:15;;;;;;;30.15;5.40;;;;;;;7.12;72.79;103091.47;5091328;28;20028;-70
2022/01/30 11:19:43;;;;;;;34.88;5.00;;;;;;;7.22;72.45;103084.41;5100346;28;20234;-70
2022/01/30 11:22:14;;;;;;;31.48;4.65;;;;;;;7.29;72.75;103087.53;5105242;28;20039;-69
2022/01/30 11:24:42;;;;;;;37.55;4.85;;;;;;;7.37;72.03;103089.78;5105171;28;20050;-70
2022/01/30 11:27:09;;;;;;;33.03;4.78;;;;;;;7.39;71.63;103083.94;5081318;28;20044;-69
2022/01/30 11:29:35;;;;;;;35.78;4.60;;;;;;;7.40;69.24;103082.22;5105057;28;20246;-69
2022/01/30 11:32:02;;;;;;;26.88;4.80;;;;;;;7.38;68.63;103082.13;5091054;28;20081;-70
2022/01/30 11:34:29;;;;;;;29.50;4.13;;;;;;;7.40;70.58;103083.16;5105026;28;20024;-69
2022/01/30 11:36:54;;;;;;;31.50;4.78;;;;;;;7.42;69.94;103083.25;5102526;28;20023;-70
2022/01/30 11:39:20;;;;;;;27.73;4.22;;;;;;;7.42;68.36;103078.97;5104901;28;20075;-70
2022/01/30 11:42:05;;;;;;;34.72;4.57;;;;;;;7.41;69.85;103084.94;5089036;28;20036;-70
2022/01/30 11:44:30;;;;;;;26.58;4.95;;;;;;;7.43;70.37;103079.84;5104743;28;20011;-70
2022/01/30 11:46:56;;;;;;;34.70;4.75;;;;;;;7.47;69.47;103082.81;5102260;28;21169;-69
2022/01/30 11:49:21;;;;;;;29.50;4.85;;;;;;;7.55;70.83;103082.47;5092954;28;20012;-69
2022/01/30 11:51:51;;;;;;;28.73;4.65;;;;;;;7.63;69.61;103074.44;5098345;28;20032;-70
2022/01/30 11:54:35;;;;;;;28.27;4.10;;;;;;;7.70;69.54;103067.97;5103449;28;20027;-70
2022/01/30 11:57:02;;;;;;;29.23;4.35;;;;;;;7.72;66.91;103063.81;5102066;28;20258;-69
2022/01/30 11:59:36;;;;;;;23.70;3.65;;;;;;;7.68;66.79;103060.91;5093315;28;20189;-69
2022/01/30 12:02:34;;;;;;;28.58;4.75;;;;;;;7.58;67.34;103067.13;5089280;28;20078;-70
2022/01/30 12:05:03;;;;;;;27.42;3.75;;;;;;;7.47;68.32;103067.25;5104286;28;20023;-70
2022/01/30 12:07:42;;;;;;;27.45;5.07;;;;;;;7.44;68.93;103080.00;5098411;28;20052;-69
2022/01/30 12:10:20;;;;;;;25.15;4.22;;;;;;;7.42;70.17;103071.19;5097933;28;20020;-70
2022/01/30 12:12:53;;;;;;;30.30;4.55;;;;;;;7.43;69.42;103073.00;5094873;28;20149;-69
2022/01/30 12:15:41;;;;;;;28.05;5.32;;;;;;;7.45;70.08;103067.91;5104672;28;20054;-69
2022/01/30 12:18:10;;;;;;;31.80;4.35;;;;;;;7.44;68.87;103061.84;5093139;28;20367;-69
2022/01/30 12:21:05;;;;;;;28.15;4.43;;;;;;;7.42;69.69;103066.00;5092102;28;20033;-69
2022/01/30 12:23:36;;;;;;;31.40;4.53;;;;;;;7.38;68.95;103069.16;5099167;28;20205;-70